sensor_id;sensor_type;location;lat;lon;timestamp;pressure;altitude;pressure_sealevel;temperature;humidity
48156;BME280;35568;48.104;11.782;2024-01-15T00:01:49;94041.60;;;-1.47;52.20
48156;BME280;35568;48.104;11.782;2024-01-15T00:04:17;94040.58;;;-1.34;52.71
48156;BME280;35568;48.104;11.782;2024-01-15T00:06:43;94038.59;;;-1.38;53.48
48156;BME280;35568;48.104;11.782;2024-01-15T00:09:10;94039.75;;;-1.71;53.77
48156;BME280;35568;48.104;11.782;2024-01-15T00:11:37;94031.87;;;-1.76;54.12
48156;BME280;35568;48.104;11.782;2024-01-15T00:14:04;94035.65;;;-1.50;54.46
48156;BME280;35568;48.104;11.782;2024-01-15T00:16:31;94041.46;;;-1.52;54.71
48156;BME280;35568;48.104;11.782;2024-01-15T00:18:59;94043.14;;;-1.51;54.58
48156;BME280;35568;48.104;11.782;2024-01-15T00:21:26;94038.77;;;-1.41;55.30
48156;BME280;35568;48.104;11.782;2024-01-15T00:23:53;94038.21;;;-1.49;55.59
48156;BME280;35568;48.104;11.782;2024-01-15T00:26:20;94033.58;;;-1.50;56.01
48156;BME280;35568;48.104;11.782;2024-01-15T00:28:47;94035.02;;;-1.56;56.43
48156;BME280;35568;48.104;11.782;2024-01-15T00:31:16;94044.70;;;-1.64;56.64
48156;BME280;35568;48.104;11.782;2024-01-15T00:33:43;94046.09;;;-1.86;57.06
48156;BME280;35568;48.104;11.782;2024-01-15T00:36:11;94042.67;;;-1.33;56.25
48156;BME280;35568;48.104;11.782;2024-01-15T00:38:38;94048.98;;;-1.17;56.00
48156;BME280;35568;48.104;11.782;2024-01-15T00:41:05;94054.17;;;-1.61;56.11
48156;BME280;35568;48.104;11.782;2024-01-15T00:43:32;94063.51;;;-1.17;55.78
48156;BME280;35568;48.104;11.782;2024-01-15T00:46:02;94065.62;;;-1.26;55.59
48156;BME280;35568;48.104;11.782;2024-01-15T00:48:28;94073.89;;;-1.12;55.48
48156;BME280;35568;48.104;11.782;2024-01-15T00:50:55;94078.81;;;-0.94;55.49
48156;BME280;35568;48.104;11.782;2024-01-15T00:53:22;94085.07;;;-1.12;55.40
48156;BME280;35568;48.104;11.782;2024-01-15T00:55:49;94089.35;;;-0.99;55.20
48156;BME280;35568;48.104;11.782;2024-01-15T00:58:16;94085.46;;;-1.07;55.70
48156;BME280;35568;48.104;11.782;2024-01-15T01:00:43;94085.57;;;-1.20;56.12
48156;BME280;35568;48.104;11.782;2024-01-15T01:03:10;94083.21;;;-1.40;56.15
48156;BME280;35568;48.104;11.782;2024-01-15T01:05:38;94089.34;;;-1.33;55.78
48156;BME280;35568;48.104;11.782;2024-01-15T01:08:05;94090.99;;;-0.96;55.55
48156;BME280;35568;48.104;11.782;2024-01-15T01:10:32;94088.52;;;-1.23;55.14
48156;BME280;35568;48.104;11.782;2024-01-15T01:13:00;94085.67;;;-0.79;55.13
48156;BME280;35568;48.104;11.782;2024-01-15T01:15:27;94085.76;;;-1.10;55.15
48156;BME280;35568;48.104;11.782;2024-01-15T01:17:54;94087.85;;;-1.02;55.07
48156;BME280;35568;48.104;11.782;2024-01-15T01:20:21;94091.44;;;-0.86;54.60
48156;BME280;35568;48.104;11.782;2024-01-15T01:22:49;94091.22;;;-0.95;53.25
48156;BME280;35568;48.104;11.782;2024-01-15T01:25:16;94101.70;;;-1.37;53.79
48156;BME280;35568;48.104;11.782;2024-01-15T01:27:44;94107.51;;;-1.36;53.82
48156;BME280;35568;48.104;11.782;2024-01-15T01:30:11;94103.00;;;-1.60;54.01
48156;BME280;35568;48.104;11.782;2024-01-15T01:32:38;94109.75;;;-1.60;53.81
48156;BME280;35568;48.104;11.782;2024-01-15T01:35:06;94109.42;;;-1.51;52.98
48156;BME280;35568;48.104;11.782;2024-01-15T01:37:33;94103.93;;;-1.80;52.92
48156;BME280;35568;48.104;11.782;2024-01-15T01:40:00;94114.18;;;-1.98;53.04
48156;BME280;35568;48.104;11.782;2024-01-15T01:42:27;94116.22;;;-1.82;52.64
48156;BME280;35568;48.104;11.782;2024-01-15T01:44:54;94115.15;;;-2.04;52.70
48156;BME280;35568;48.104;11.782;2024-01-15T01:47:21;94111.44;;;-1.94;52.35
48156;BME280;35568;48.104;11.782;2024-01-15T01:49:49;94110.59;;;-1.92;52.70
48156;BME280;35568;48.104;11.782;2024-01-15T01:52:16;94112.93;;;-2.20;52.49
48156;BME280;35568;48.104;11.782;2024-01-15T01:54:43;94109.12;;;-2.17;52.91
48156;BME280;35568;48.104;11.782;2024-01-15T01:57:12;94109.78;;;-2.38;52.63
48156;BME280;35568;48.104;11.782;2024-01-15T01:59:40;94111.07;;;-2.21;52.45
48156;BME280;35568;48.104;11.782;2024-01-15T02:02:07;94110.79;;;-2.07;52.11
48156;BME280;35568;48.104;11.782;2024-01-15T02:04:35;94110.29;;;-2.13;51.94
48156;BME280;35568;48.104;11.782;2024-01-15T02:07:03;94108.18;;;-2.25;52.07
48156;BME280;35568;48.104;11.782;2024-01-15T02:09:30;94111.72;;;-2.23;51.69
48156;BME280;35568;48.104;11.782;2024-01-15T02:11:57;94107.69;;;-2.05;51.77
48156;BME280;35568;48.104;11.782;2024-01-15T02:14:25;94114.80;;;-2.67;52.13
48156;BME280;35568;48.104;11.782;2024-01-15T02:16:52;94119.51;;;-2.59;52.27
48156;BME280;35568;48.104;11.782;2024-01-15T02:19:20;94118.23;;;-2.36;52.23
48156;BME280;35568;48.104;11.782;2024-01-15T02:21:47;94119.83;;;-2.48;51.87
48156;BME280;35568;48.104;11.782;2024-01-15T02:24:14;94128.16;;;-2.51;52.39
48156;BME280;35568;48.104;11.782;2024-01-15T02:26:41;94130.37;;;-2.18;51.65
48156;BME280;35568;48.104;11.782;2024-01-15T02:29:09;94125.98;;;-2.08;51.73
48156;BME280;35568;48.104;11.782;2024-01-15T02:31:37;94127.10;;;-2.13;51.78
48156;BME280;35568;48.104;11.782;2024-01-15T02:34:04;94132.20;;;-2.01;51.41
48156;BME280;35568;48.104;11.782;2024-01-15T02:36:31;94130.45;;;-1.98;51.24
48156;BME280;35568;48.104;11.782;2024-01-15T02:38:59;94138.84;;;-1.82;51.31
48156;BME280;35568;48.104;11.782;2024-01-15T02:41:25;94141.96;;;-1.88;50.77
48156;BME280;35568;48.104;11.782;2024-01-15T02:43:52;94141.17;;;-1.95;51.06
48156;BME280;35568;48.104;11.782;2024-01-15T02:46:20;94148.31;;;-1.96;51.38
48156;BME280;35568;48.104;11.782;2024-01-15T02:48:47;94152.52;;;-1.80;51.53
48156;BME280;35568;48.104;11.782;2024-01-15T02:51:14;94148.25;;;-1.89;50.81
48156;BME280;35568;48.104;11.782;2024-01-15T02:53:41;94155.98;;;-1.75;50.68
48156;BME280;35568;48.104;11.782;2024-01-15T02:56:08;94162.53;;;-1.68;50.92
48156;BME280;35568;48.104;11.782;2024-01-15T02:58:35;94169.20;;;-1.60;51.44
48156;BME280;35568;48.104;11.782;2024-01-15T03:01:02;94166.93;;;-2.19;50.90
48156;BME280;35568;48.104;11.782;2024-01-15T03:03:30;94171.20;;;-1.88;51.66
48156;BME280;35568;48.104;11.782;2024-01-15T03:05:57;94165.96;;;-1.92;51.32
48156;BME280;35568;48.104;11.782;2024-01-15T03:08:25;94157.40;;;-2.00;51.43
48156;BME280;35568;48.104;11.782;2024-01-15T03:10:52;94147.47;;;-2.18;51.64
48156;BME280;35568;48.104;11.782;2024-01-15T03:13:20;94140.98;;;-2.44;51.91
48156;BME280;35568;48.104;11.782;2024-01-15T03:15:47;94140.73;;;-2.72;52.28
48156;BME280;35568;48.104;11.782;2024-01-15T03:18:14;94136.08;;;-2.23;52.73
48156;BME280;35568;48.104;11.782;2024-01-15T03:20:41;94133.96;;;-1.96;51.86
48156;BME280;35568;48.104;11.782;2024-01-15T03:23:09;94131.99;;;-2.26;52.19
48156;BME280;35568;48.104;11.782;2024-01-15T03:25:36;94131.79;;;-2.63;52.26
48156;BME280;35568;48.104;11.782;2024-01-15T03:28:03;94131.30;;;-2.28;51.54
48156;BME280;35568;48.104;11.782;2024-01-15T03:30:31;94127.04;;;-2.25;51.58
48156;BME280;35568;48.104;11.782;2024-01-15T03:32:58;94125.79;;;-2.54;51.49
48156;BME280;35568;48.104;11.782;2024-01-15T03:35:26;94136.15;;;-2.11;51.30
48156;BME280;35568;48.104;11.782;2024-01-15T03:37:53;94131.81;;;-2.00;51.02
48156;BME280;35568;48.104;11.782;2024-01-15T03:40:20;94135.26;;;-2.51;51.49
48156;BME280;35568;48.104;11.782;2024-01-15T03:42:48;94130.70;;;-2.08;50.78
48156;BME280;35568;48.104;11.782;2024-01-15T03:45:15;94140.29;;;-2.05;50.65
48156;BME280;35568;48.104;11.782;2024-01-15T03:47:43;94137.85;;;-2.11;50.85
48156;BME280;35568;48.104;11.782;2024-01-15T03:50:10;94144.61;;;-2.02;50.89
48156;BME280;35568;48.104;11.782;2024-01-15T03:52:36;94144.20;;;-1.92;50.70
48156;BME280;35568;48.104;11.782;2024-01-15T03:55:04;94145.37;;;-2.06;50.72
48156;BME280;35568;48.104;11.782;2024-01-15T03:57:31;94137.94;;;-2.05;50.85
48156;BME280;35568;48.104;11.782;2024-01-15T03:59:58;94141.39;;;-2.07;51.14
48156;BME280;35568;48.104;11.782;2024-01-15T04:03:01;94129.83;;;-1.95;50.76
48156;BME280;35568;48.104;11.782;2024-01-15T04:05:27;94128.54;;;-2.20;51.07
48156;BME280;35568;48.104;11.782;2024-01-15T04:07:55;94130.71;;;-2.24;51.55
48156;BME280;35568;48.104;11.782;2024-01-15T04:10:22;94131.13;;;-2.36;51.51
48156;BME280;35568;48.104;11.782;2024-01-15T04:12:49;94124.17;;;-1.91;51.39
48156;BME280;35568;48.104;11.782;2024-01-15T04:15:16;94119.81;;;-2.14;50.75
48156;BME280;35568;48.104;11.782;2024-01-15T04:17:43;94117.62;;;-2.44;51.53
48156;BME280;35568;48.104;11.782;2024-01-15T04:20:10;94117.99;;;-1.91;50.93
48156;BME280;35568;48.104;11.782;2024-01-15T04:22:37;94118.53;;;-2.08;51.39
48156;BME280;35568;48.104;11.782;2024-01-15T04:25:06;94115.13;;;-1.99;51.25
48156;BME280;35568;48.104;11.782;2024-01-15T04:27:33;94118.03;;;-1.91;50.86
48156;BME280;35568;48.104;11.782;2024-01-15T04:30:00;94120.36;;;-1.83;50.69
48156;BME280;35568;48.104;11.782;2024-01-15T04:32:27;94123.72;;;-1.99;50.58
48156;BME280;35568;48.104;11.782;2024-01-15T04:34:54;94119.09;;;-1.92;50.63
48156;BME280;35568;48.104;11.782;2024-01-15T04:37:21;94121.99;;;-2.08;50.72
48156;BME280;35568;48.104;11.782;2024-01-15T04:39:48;94122.62;;;-1.89;50.35
48156;BME280;35568;48.104;11.782;2024-01-15T04:42:15;94118.50;;;-2.04;50.74
48156;BME280;35568;48.104;11.782;2024-01-15T04:44:43;94112.37;;;-1.84;50.94
48156;BME280;35568;48.104;11.782;2024-01-15T04:47:10;94115.24;;;-1.81;50.20
48156;BME280;35568;48.104;11.782;2024-01-15T04:49:37;94114.45;;;-2.12;49.79
48156;BME280;35568;48.104;11.782;2024-01-15T04:52:04;94116.90;;;-1.82;50.73
48156;BME280;35568;48.104;11.782;2024-01-15T04:54:32;94118.86;;;-2.20;50.42
48156;BME280;35568;48.104;11.782;2024-01-15T04:56:59;94118.28;;;-2.13;50.73
48156;BME280;35568;48.104;11.782;2024-01-15T04:59:26;94122.52;;;-2.02;50.55
48156;BME280;35568;48.104;11.782;2024-01-15T05:01:52;94120.69;;;-2.32;51.09
48156;BME280;35568;48.104;11.782;2024-01-15T05:04:19;94116.93;;;-2.29;51.26
48156;BME280;35568;48.104;11.782;2024-01-15T05:06:46;94123.13;;;-2.06;50.58
48156;BME280;35568;48.104;11.782;2024-01-15T05:09:13;94118.83;;;-2.21;50.94
48156;BME280;35568;48.104;11.782;2024-01-15T05:11:40;94116.66;;;-1.99;50.69
48156;BME280;35568;48.104;11.782;2024-01-15T05:14:07;94102.92;;;-2.31;51.15
48156;BME280;35568;48.104;11.782;2024-01-15T05:16:34;94104.29;;;-2.22;51.32
48156;BME280;35568;48.104;11.782;2024-01-15T05:19:01;94109.87;;;-1.94;50.39
48156;BME280;35568;48.104;11.782;2024-01-15T05:21:28;94117.28;;;-1.76;50.95
48156;BME280;35568;48.104;11.782;2024-01-15T05:23:56;94100.15;;;-2.22;51.14
48156;BME280;35568;48.104;11.782;2024-01-15T05:26:22;94085.52;;;-2.11;51.13
48156;BME280;35568;48.104;11.782;2024-01-15T05:28:49;94091.72;;;-1.96;51.15
48156;BME280;35568;48.104;11.782;2024-01-15T05:31:17;94098.78;;;-1.92;50.66
48156;BME280;35568;48.104;11.782;2024-01-15T05:33:44;94101.46;;;-1.89;50.31
48156;BME280;35568;48.104;11.782;2024-01-15T05:36:11;94102.90;;;-2.23;50.68
48156;BME280;35568;48.104;11.782;2024-01-15T05:38:38;94104.25;;;-1.97;50.75
48156;BME280;35568;48.104;11.782;2024-01-15T05:41:06;94108.34;;;-2.23;50.49
48156;BME280;35568;48.104;11.782;2024-01-15T05:43:33;94102.38;;;-2.04;50.22
48156;BME280;35568;48.104;11.782;2024-01-15T05:46:01;94097.53;;;-1.93;50.82
48156;BME280;35568;48.104;11.782;2024-01-15T05:48:28;94097.15;;;-1.63;50.18
48156;BME280;35568;48.104;11.782;2024-01-15T05:50:55;94098.69;;;-2.69;51.06
48156;BME280;35568;48.104;11.782;2024-01-15T05:53:22;94101.24;;;-2.29;50.72
48156;BME280;35568;48.104;11.782;2024-01-15T05:55:49;94099.53;;;-2.19;50.74
48156;BME280;35568;48.104;11.782;2024-01-15T05:58:17;94107.19;;;-1.91;50.40
48156;BME280;35568;48.104;11.782;2024-01-15T06:00:44;94106.09;;;-2.08;50.66
48156;BME280;35568;48.104;11.782;2024-01-15T06:03:11;94105.60;;;-2.44;50.53
48156;BME280;35568;48.104;11.782;2024-01-15T06:05:38;94099.75;;;-2.25;50.43
48156;BME280;35568;48.104;11.782;2024-01-15T06:08:06;94107.02;;;-2.60;51.21
48156;BME280;35568;48.104;11.782;2024-01-15T06:10:33;94098.45;;;-2.41;50.89
48156;BME280;35568;48.104;11.782;2024-01-15T06:13:00;94101.62;;;-2.37;51.08
48156;BME280;35568;48.104;11.782;2024-01-15T06:15:27;94105.63;;;-2.07;51.00
48156;BME280;35568;48.104;11.782;2024-01-15T06:17:54;94102.67;;;-1.91;51.35
48156;BME280;35568;48.104;11.782;2024-01-15T06:20:21;94102.07;;;-2.09;51.51
48156;BME280;35568;48.104;11.782;2024-01-15T06:22:48;94109.61;;;-1.29;49.68
48156;BME280;35568;48.104;11.782;2024-01-15T06:25:15;94108.38;;;-1.60;49.61
48156;BME280;35568;48.104;11.782;2024-01-15T06:27:42;94109.96;;;-1.39;50.17
48156;BME280;35568;48.104;11.782;2024-01-15T06:30:10;94108.26;;;-1.64;49.42
48156;BME280;35568;48.104;11.782;2024-01-15T06:32:37;94108.81;;;-1.64;48.92
48156;BME280;35568;48.104;11.782;2024-01-15T06:35:05;94109.76;;;-2.51;49.07
48156;BME280;35568;48.104;11.782;2024-01-15T06:37:32;94108.16;;;-1.61;49.23
48156;BME280;35568;48.104;11.782;2024-01-15T06:39:59;94104.06;;;-2.17;49.62
48156;BME280;35568;48.104;11.782;2024-01-15T06:42:27;94108.32;;;-2.04;49.70
48156;BME280;35568;48.104;11.782;2024-01-15T06:44:54;94106.60;;;-2.05;49.87
48156;BME280;35568;48.104;11.782;2024-01-15T06:47:21;94104.58;;;-2.09;50.48
48156;BME280;35568;48.104;11.782;2024-01-15T06:49:48;94107.32;;;-1.97;49.87
48156;BME280;35568;48.104;11.782;2024-01-15T06:52:15;94116.45;;;-2.27;49.84
48156;BME280;35568;48.104;11.782;2024-01-15T06:54:42;94116.27;;;-2.14;50.51
48156;BME280;35568;48.104;11.782;2024-01-15T06:57:09;94117.49;;;-2.24;50.48
48156;BME280;35568;48.104;11.782;2024-01-15T06:59:36;94120.32;;;-2.32;50.96
48156;BME280;35568;48.104;11.782;2024-01-15T07:02:04;94125.62;;;-2.52;50.63
48156;BME280;35568;48.104;11.782;2024-01-15T07:04:31;94125.63;;;-2.46;51.19
48156;BME280;35568;48.104;11.782;2024-01-15T07:06:58;94124.73;;;-2.20;50.67
48156;BME280;35568;48.104;11.782;2024-01-15T07:09:25;94128.79;;;-2.35;50.23
48156;BME280;35568;48.104;11.782;2024-01-15T07:11:51;94128.77;;;-2.02;49.97
48156;BME280;35568;48.104;11.782;2024-01-15T07:14:18;94126.99;;;-2.34;50.36
48156;BME280;35568;48.104;11.782;2024-01-15T07:16:45;94127.91;;;-1.81;49.74
48156;BME280;35568;48.104;11.782;2024-01-15T07:19:12;94126.85;;;-1.98;49.62
48156;BME280;35568;48.104;11.782;2024-01-15T07:21:39;94118.10;;;-2.22;49.66
48156;BME280;35568;48.104;11.782;2024-01-15T07:24:06;94110.76;;;-1.40;49.99
48156;BME280;35568;48.104;11.782;2024-01-15T07:26:33;94106.61;;;-1.96;49.42
48156;BME280;35568;48.104;11.782;2024-01-15T07:29:01;94104.43;;;-1.82;49.36
48156;BME280;35568;48.104;11.782;2024-01-15T07:31:28;94101.83;;;-1.45;49.81
48156;BME280;35568;48.104;11.782;2024-01-15T07:33:56;94108.80;;;-1.52;49.72
48156;BME280;35568;48.104;11.782;2024-01-15T07:36:23;94105.62;;;-1.91;48.83
48156;BME280;35568;48.104;11.782;2024-01-15T07:38:50;94106.59;;;-2.04;49.55
48156;BME280;35568;48.104;11.782;2024-01-15T07:41:17;94107.32;;;-2.27;50.60
48156;BME280;35568;48.104;11.782;2024-01-15T07:43:44;94107.78;;;-2.19;50.72
48156;BME280;35568;48.104;11.782;2024-01-15T07:46:13;94110.42;;;-2.18;50.67
48156;BME280;35568;48.104;11.782;2024-01-15T07:48:41;94105.49;;;-1.70;50.49
48156;BME280;35568;48.104;11.782;2024-01-15T07:51:08;94112.43;;;-1.92;50.07
48156;BME280;35568;48.104;11.782;2024-01-15T07:53:34;94109.07;;;-2.02;50.34
48156;BME280;35568;48.104;11.782;2024-01-15T07:56:02;94103.86;;;-1.91;50.08
48156;BME280;35568;48.104;11.782;2024-01-15T07:58:28;94111.81;;;-1.49;50.47
48156;BME280;35568;48.104;11.782;2024-01-15T08:00:56;94115.47;;;-1.67;50.23
48156;BME280;35568;48.104;11.782;2024-01-15T08:03:22;94116.17;;;-2.01;50.01
48156;BME280;35568;48.104;11.782;2024-01-15T08:05:50;94109.70;;;-2.00;51.02
48156;BME280;35568;48.104;11.782;2024-01-15T08:08:17;94102.80;;;-2.01;51.00
48156;BME280;35568;48.104;11.782;2024-01-15T08:10:44;94095.23;;;-2.28;50.67
48156;BME280;35568;48.104;11.782;2024-01-15T08:13:11;94082.23;;;-2.05;50.89
48156;BME280;35568;48.104;11.782;2024-01-15T08:15:38;94090.15;;;-1.53;50.66
48156;BME280;35568;48.104;11.782;2024-01-15T08:18:05;94072.46;;;-2.14;50.60
48156;BME280;35568;48.104;11.782;2024-01-15T08:20:33;94068.97;;;-1.99;51.40
48156;BME280;35568;48.104;11.782;2024-01-15T08:23:00;94066.77;;;-1.69;50.94
48156;BME280;35568;48.104;11.782;2024-01-15T08:25:27;94076.54;;;-1.79;51.04
48156;BME280;35568;48.104;11.782;2024-01-15T08:27:55;94077.74;;;-2.00;50.65
48156;BME280;35568;48.104;11.782;2024-01-15T08:30:23;94078.28;;;-1.87;50.33
48156;BME280;35568;48.104;11.782;2024-01-15T08:32:50;94077.22;;;-2.06;51.08
48156;BME280;35568;48.104;11.782;2024-01-15T08:35:17;94074.87;;;-2.33;50.90
48156;BME280;35568;48.104;11.782;2024-01-15T08:37:44;94073.69;;;-2.05;51.01
48156;BME280;35568;48.104;11.782;2024-01-15T08:40:11;94078.08;;;-2.48;51.23
48156;BME280;35568;48.104;11.782;2024-01-15T08:42:38;94081.72;;;-2.11;50.69
48156;BME280;35568;48.104;11.782;2024-01-15T08:45:06;94083.95;;;-2.04;50.77
48156;BME280;35568;48.104;11.782;2024-01-15T08:47:34;94089.15;;;-1.94;50.99
48156;BME280;35568;48.104;11.782;2024-01-15T08:50:01;94091.20;;;-1.87;50.65
48156;BME280;35568;48.104;11.782;2024-01-15T08:52:28;94095.36;;;-2.09;50.83
48156;BME280;35568;48.104;11.782;2024-01-15T08:54:57;94096.91;;;-1.58;50.82
48156;BME280;35568;48.104;11.782;2024-01-15T08:57:24;94106.99;;;-1.75;50.40
48156;BME280;35568;48.104;11.782;2024-01-15T08:59:52;94095.98;;;-1.69;50.47
48156;BME280;35568;48.104;11.782;2024-01-15T09:02:18;94091.99;;;-1.55;50.40
48156;BME280;35568;48.104;11.782;2024-01-15T09:04:45;94093.18;;;-1.58;50.23
48156;BME280;35568;48.104;11.782;2024-01-15T09:07:13;94093.91;;;-1.81;50.41
48156;BME280;35568;48.104;11.782;2024-01-15T09:09:40;94093.71;;;-1.19;50.30
48156;BME280;35568;48.104;11.782;2024-01-15T09:12:08;94096.61;;;-1.24;50.42
48156;BME280;35568;48.104;11.782;2024-01-15T09:14:35;94089.95;;;-2.15;50.96
48156;BME280;35568;48.104;11.782;2024-01-15T09:17:04;94101.18;;;-1.68;50.90
48156;BME280;35568;48.104;11.782;2024-01-15T09:19:32;94099.49;;;-1.41;50.12
48156;BME280;35568;48.104;11.782;2024-01-15T09:21:59;94095.04;;;-1.56;50.32
48156;BME280;35568;48.104;11.782;2024-01-15T09:24:26;94102.98;;;-1.66;50.06
48156;BME280;35568;48.104;11.782;2024-01-15T09:26:53;94099.49;;;-1.13;50.21
48156;BME280;35568;48.104;11.782;2024-01-15T09:29:20;94095.23;;;-1.32;50.16
48156;BME280;35568;48.104;11.782;2024-01-15T09:31:48;94096.75;;;-0.97;49.95
48156;BME280;35568;48.104;11.782;2024-01-15T09:34:29;94104.24;;;-0.96;49.85
48156;BME280;35568;48.104;11.782;2024-01-15T09:36:56;94104.72;;;-1.25;49.47
48156;BME280;35568;48.104;11.782;2024-01-15T09:39:24;94098.79;;;-1.12;49.81
48156;BME280;35568;48.104;11.782;2024-01-15T09:41:53;94113.95;;;-1.40;49.55
48156;BME280;35568;48.104;11.782;2024-01-15T09:44:21;94105.80;;;-1.55;50.45
48156;BME280;35568;48.104;11.782;2024-01-15T09:46:50;94101.24;;;-1.59;50.13
48156;BME280;35568;48.104;11.782;2024-01-15T09:49:19;94091.38;;;-1.10;49.72
48156;BME280;35568;48.104;11.782;2024-01-15T09:51:47;94093.01;;;-0.94;49.15
48156;BME280;35568;48.104;11.782;2024-01-15T09:54:17;94097.48;;;-1.12;49.44
48156;BME280;35568;48.104;11.782;2024-01-15T09:56:48;94093.71;;;-0.67;49.02
48156;BME280;35568;48.104;11.782;2024-01-15T09:59:19;94091.01;;;-0.68;48.51
48156;BME280;35568;48.104;11.782;2024-01-15T10:01:51;94090.38;;;-0.41;48.23
48156;BME280;35568;48.104;11.782;2024-01-15T10:04:27;94086.49;;;-0.29;48.11
48156;BME280;35568;48.104;11.782;2024-01-15T10:06:56;94078.28;;;-0.13;48.19
48156;BME280;35568;48.104;11.782;2024-01-15T10:09:25;94075.67;;;-0.22;47.95
48156;BME280;35568;48.104;11.782;2024-01-15T10:11:54;94071.75;;;-0.43;47.39
48156;BME280;35568;48.104;11.782;2024-01-15T10:14:24;94078.42;;;-0.46;47.43
48156;BME280;35568;48.104;11.782;2024-01-15T10:17:12;94072.83;;;-0.78;48.11
48156;BME280;35568;48.104;11.782;2024-01-15T10:19:40;94074.92;;;-0.28;47.65
48156;BME280;35568;48.104;11.782;2024-01-15T10:22:09;94071.60;;;-0.55;47.67
48156;BME280;35568;48.104;11.782;2024-01-15T10:24:38;94068.06;;;-0.50;47.42
48156;BME280;35568;48.104;11.782;2024-01-15T10:27:09;94061.84;;;-0.48;48.04
48156;BME280;35568;48.104;11.782;2024-01-15T10:29:38;94049.09;;;-0.25;47.53
48156;BME280;35568;48.104;11.782;2024-01-15T10:32:08;94050.65;;;-0.35;47.01
48156;BME280;35568;48.104;11.782;2024-01-15T10:34:39;94051.52;;;-0.34;47.50
48156;BME280;35568;48.104;11.782;2024-01-15T10:37:09;94053.45;;;-0.45;47.03
48156;BME280;35568;48.104;11.782;2024-01-15T10:39:38;94049.59;;;-0.91;47.75
48156;BME280;35568;48.104;11.782;2024-01-15T10:42:07;94047.76;;;-0.65;47.71
48156;BME280;35568;48.104;11.782;2024-01-15T10:44:35;94039.98;;;-0.37;47.84
48156;BME280;35568;48.104;11.782;2024-01-15T10:47:04;94039.02;;;-0.10;47.64
48156;BME280;35568;48.104;11.782;2024-01-15T10:49:34;94039.34;;;-0.63;47.17
48156;BME280;35568;48.104;11.782;2024-01-15T10:52:07;94037.66;;;-0.42;46.63
48156;BME280;35568;48.104;11.782;2024-01-15T10:54:38;94038.01;;;-0.35;46.64
48156;BME280;35568;48.104;11.782;2024-01-15T10:57:07;94036.96;;;-0.39;46.75
48156;BME280;35568;48.104;11.782;2024-01-15T10:59:39;94042.05;;;0.28;46.46
48156;BME280;35568;48.104;11.782;2024-01-15T11:02:08;94034.92;;;-0.21;46.33
48156;BME280;35568;48.104;11.782;2024-01-15T11:04:37;94035.17;;;-0.02;46.69
48156;BME280;35568;48.104;11.782;2024-01-15T11:07:06;94036.70;;;0.04;46.40
48156;BME280;35568;48.104;11.782;2024-01-15T11:09:39;94033.89;;;-0.41;46.53
48156;BME280;35568;48.104;11.782;2024-01-15T11:12:10;94021.47;;;0.03;46.35
48156;BME280;35568;48.104;11.782;2024-01-15T11:14:40;94025.41;;;-0.01;46.52
48156;BME280;35568;48.104;11.782;2024-01-15T11:17:08;94020.41;;;-0.37;47.02
48156;BME280;35568;48.104;11.782;2024-01-15T11:19:37;94007.99;;;-0.17;46.92
48156;BME280;35568;48.104;11.782;2024-01-15T11:22:06;94012.89;;;0.40;46.20
48156;BME280;35568;48.104;11.782;2024-01-15T11:24:36;94011.59;;;0.17;46.38
48156;BME280;35568;48.104;11.782;2024-01-15T11:27:04;94004.04;;;0.14;46.21
48156;BME280;35568;48.104;11.782;2024-01-15T11:29:33;93992.86;;;-0.04;46.29
48156;BME280;35568;48.104;11.782;2024-01-15T11:32:02;93993.01;;;0.14;45.93
48156;BME280;35568;48.104;11.782;2024-01-15T11:34:51;93997.20;;;0.72;44.93
48156;BME280;35568;48.104;11.782;2024-01-15T11:37:20;93987.02;;;0.10;45.40
48156;BME280;35568;48.104;11.782;2024-01-15T11:39:48;93992.57;;;0.51;44.91
48156;BME280;35568;48.104;11.782;2024-01-15T11:42:17;93988.64;;;0.74;45.33
48156;BME280;35568;48.104;11.782;2024-01-15T11:44:44;93990.31;;;1.03;44.31
48156;BME280;35568;48.104;11.782;2024-01-15T11:47:11;93987.07;;;0.84;43.76
48156;BME280;35568;48.104;11.782;2024-01-15T11:49:58;93996.13;;;0.68;44.11
48156;BME280;35568;48.104;11.782;2024-01-15T11:52:26;93990.96;;;0.79;45.11
48156;BME280;35568;48.104;11.782;2024-01-15T11:55:01;93994.30;;;1.02;44.96
48156;BME280;35568;48.104;11.782;2024-01-15T11:57:37;93992.65;;;1.11;44.28
48156;BME280;35568;48.104;11.782;2024-01-15T12:00:09;93989.64;;;0.82;45.22
48156;BME280;35568;48.104;11.782;2024-01-15T12:02:36;93987.50;;;0.40;44.65
48156;BME280;35568;48.104;11.782;2024-01-15T12:05:04;93985.75;;;0.38;44.94
48156;BME280;35568;48.104;11.782;2024-01-15T12:07:30;93976.08;;;0.20;45.81
48156;BME280;35568;48.104;11.782;2024-01-15T12:09:57;93980.34;;;0.46;45.71
48156;BME280;35568;48.104;11.782;2024-01-15T12:12:29;93975.87;;;0.05;46.47
48156;BME280;35568;48.104;11.782;2024-01-15T12:15:02;93962.26;;;0.05;46.71
48156;BME280;35568;48.104;11.782;2024-01-15T12:17:30;93953.29;;;0.08;46.50
48156;BME280;35568;48.104;11.782;2024-01-15T12:20:00;93956.87;;;0.48;46.23
48156;BME280;35568;48.104;11.782;2024-01-15T12:22:28;93954.62;;;0.12;46.79
48156;BME280;35568;48.104;11.782;2024-01-15T12:24:55;93954.87;;;0.22;46.89
48156;BME280;35568;48.104;11.782;2024-01-15T12:27:22;93950.50;;;0.27;47.01
48156;BME280;35568;48.104;11.782;2024-01-15T12:29:50;93949.84;;;0.41;47.25
48156;BME280;35568;48.104;11.782;2024-01-15T12:32:19;93950.55;;;-0.28;47.57
48156;BME280;35568;48.104;11.782;2024-01-15T12:34:47;93941.99;;;-0.12;47.37
48156;BME280;35568;48.104;11.782;2024-01-15T12:37:18;93943.78;;;-0.18;47.14
48156;BME280;35568;48.104;11.782;2024-01-15T12:39:45;93930.39;;;-0.14;47.67
48156;BME280;35568;48.104;11.782;2024-01-15T12:42:14;93924.42;;;-0.15;46.78
48156;BME280;35568;48.104;11.782;2024-01-15T12:44:42;93917.83;;;-0.36;47.52
48156;BME280;35568;48.104;11.782;2024-01-15T12:47:09;93906.63;;;-0.31;47.65
48156;BME280;35568;48.104;11.782;2024-01-15T12:49:36;93913.19;;;-0.67;47.51
48156;BME280;35568;48.104;11.782;2024-01-15T12:52:04;93911.96;;;-0.73;47.71
48156;BME280;35568;48.104;11.782;2024-01-15T12:54:34;93911.54;;;-0.30;47.55